Time,TemperatureF,DewpointF,PressureIn,WindDirection,WindDirectionDegrees,WindSpeedMPH,WindSpeedGustMPH,Humidity,HourlyPrecipIn,Conditions,Clouds,dailyrainin,SoftwareType,DateUTC
2013-04-29 00:00:00,32.0,-99.9,-100.00,North,-999,-999.0,-999.0,-999,-99.99,,,-99.99,,2013-04-29 07:00:00,
2013-04-29 01:00:00,32.0,-99.9,-100.00,NNE,16,2.0,4.0,-999,-99.99,,,-99.99,,2013-04-29 08:00:00,
2013-04-29 02:00:00,31.0,-99.9,-100.00,East,93,2.0,5.0,-999,-99.99,,,0.01,,2013-04-29 09:00:00,
2013-04-29 03:00:00,32.0,-99.9,-100.00,ESE,117,1.0,5.0,-999,-99.99,,,0.01,,2013-04-29 10:00:00,
2013-04-29 04:00:00,32.0,-99.9,-100.00,NNE,30,2.0,5.0,-999,-99.99,,,0.01,,2013-04-29 11:00:00,
2013-04-29 05:00:00,30.0,-99.9,-100.00,WNW,290,3.0,9.0,-999,-99.99,,,0.00,,2013-04-29 12:00:00,
2013-04-29 06:00:00,28.0,-99.9,-100.00,East,92,2.0,7.0,-999,-99.99,,,0.00,,2013-04-29 13:00:00,
2013-04-29 07:00:00,27.0,-99.9,-100.00,WNW,298,1.0,4.0,-999,-99.99,,,0.00,,2013-04-29 14:00:00,
2013-04-29 08:00:00,27.0,-99.9,-100.00,East,83,2.0,4.0,-999,-99.99,,,0.00,,2013-04-29 15:00:00,
2013-04-29 09:00:00,27.0,-99.9,-100.00,ESE,123,2.0,5.0,-999,-99.99,,,0.01,,2013-04-29 16:00:00,
2013-04-29 10:00:00,28.0,-99.9,-100.00,NW,315,3.0,9.0,-999,-99.99,,,0.00,,2013-04-29 17:00:00,
2013-04-29 11:00:00,31.0,-99.9,-100.00,North,0,4.0,11.0,-999,-99.99,,,0.00,,2013-04-29 18:00:00,
2013-04-29 11:52:00,31.0,-99.9,-100.00,North,-999,-999.0,-999.0,-999,-99.99,,,-99.99,,2013-04-29 18:52:00,
2013-04-29 12:00:00,32.0,-99.9,-100.00,NW,314,1.0,4.0,-999,-99.99,,,0.00,,2013-04-29 19:00:00,
2013-04-29 12:52:00,32.0,-99.9,-100.00,NW,314,1.0,4.0,-999,-99.99,,,0.00,,2013-04-29 19:52:00,
2013-04-29 13:00:00,31.0,-99.9,-100.00,SSW,207,2.0,10.0,-999,-99.99,,,0.01,,2013-04-29 20:00:00,
2013-04-29 14:00:00,32.0,-99.9,-100.00,NE,53,3.0,9.0,-999,-99.99,,,0.01,,2013-04-29 21:00:00,
2013-04-29 15:00:00,31.0,-99.9,-100.00,SE,136,2.0,6.0,-999,-99.99,,,0.00,,2013-04-29 22:00:00,
2013-04-29 16:00:00,31.0,-99.9,-100.00,WSW,250,2.0,5.0,-999,-99.99,,,0.00,,2013-04-29 23:00:00,
2013-04-29 16:42:00,31.0,-99.9,-100.00,WSW,250,2.0,5.0,-999,-99.99,,,0.00,,2013-04-29 23:42:00,
2013-04-29 16:53:00,31.0,-99.9,-100.00,WSW,250,2.0,5.0,-999,-99.99,,,0.00,,2013-04-29 23:53:00,
2013-04-29 17:00:00,31.0,-99.9,-100.00,ESE,115,2.0,6.0,-999,-99.99,,,0.00,,2013-04-30 00:00:00,
2013-04-29 18:00:00,31.0,-99.9,-100.00,East,95,1.0,4.0,-999,-99.99,,,0.00,,2013-04-30 01:00:00,
2013-04-29 18:42:00,31.0,-99.9,-100.00,East,95,1.0,4.0,-999,-99.99,,,0.00,,2013-04-30 01:42:00,
2013-04-29 18:52:00,31.0,-99.9,-100.00,East,95,1.0,4.0,-999,-99.99,,,0.00,,2013-04-30 01:52:00,
2013-04-29 19:00:00,30.0,-99.9,-100.00,SSE,156,1.0,3.0,-999,-99.99,,,0.00,,2013-04-30 02:00:00,
2013-04-29 22:00:00,25.0,-99.9,-100.00,SSE,162,0.0,2.0,-999,-99.99,,,0.00,,2013-04-30 05:00:00,
2013-04-29 23:00:00,24.0,-99.9,-100.00,SE,131,0.0,2.0,-999,-99.99,,,0.00,,2013-04-30 06:00:00,
2013-04-29 23:52:00,24.0,-99.9,-100.00,SE,131,0.0,2.0,-999,-99.99,,,0.00,,2013-04-30 06:52:00,